Flight Track Log - Related Links

Times and Time Zones

All times are in EDT time to prevent confusion due to time zone crossing. See the UAL653 flight status page for this flight to view local times or setup timezone preferences in your user account.

Time Position Orientation Groundspeed Altitude Reporting Facility
EDT Latitude Longitude Course Direction KTS MPH feet Rate Location/Type
Fri 02:09:38 PM 37.6333 -122.3667 136° Southeast 150 173 900  Level Northern TRACON
Fri 02:10:38 PM 37.6833 -122.3667 360° North 202 232 2,600 2,250 Climbing Northern TRACON
Fri 02:11:38 PM 37.7333 -122.4167 322° Northwest 268 308 5,400 2,693 Climbing Northern TRACON
Fri 02:12:00 PM 37.4878 -122.4622 218° Southwest  Level FlightAware
Fri 02:13:00 PM 37.4356 -122.3735 113° Southeast  Level FlightAware
Fri 02:14:00 PM 37.3872 -122.2725 130° Southeast  Level FlightAware
Fri 02:14:03 PM 37.5608 -122.4336 184° South 317 365 11,800  Level Oakland Center
Fri 02:15:00 PM 37.3192 -122.1897 136° Southeast  Level FlightAware
Fri 02:15:04 PM 37.4781 -122.3519 142° Southeast 387 445 14,200  Level Oakland Center
Fri 02:16:06 PM 37.4014 -122.2472 133° Southeast 406 467 16,700 2,129 Climbing Oakland Center
Fri 02:17:08 PM 37.3189 -122.1367 133° Southeast 431 496 18,600 2,341 Climbing Oakland Center
Fri 02:18:09 PM 37.2156 -121.9983 133° Southeast 452 520 21,500 2,293 Climbing Oakland Center
Fri 02:19:11 PM 37.1256 -121.8811 134° Southeast 465 535 23,300 1,694 Climbing Oakland Center
Fri 02:20:13 PM 37.0331 -121.7597 134° Southeast 482 555 25,000 1,659 Climbing Oakland Center
Fri 02:21:14 PM 36.9383 -121.6381 134° Southeast 488 562 26,700 1,561 Climbing Oakland Center
Fri 02:22:16 PM 36.8411 -121.5103 134° Southeast 503 579 28,200 1,839 Climbing Oakland Center
Fri 02:23:18 PM 36.7381 -121.3728 133° Southeast 506 582 30,500 2,000 Climbing Oakland Center
Fri 02:24:19 PM 36.6431 -121.2472 133° Southeast 501 577 32,300 1,756 Climbing Oakland Center
Fri 02:25:21 PM 36.5475 -121.1233 134° Southeast 497 572 34,100 1,306 Climbing Oakland Center
Fri 02:26:23 PM 36.4517 -121.0003 134° Southeast 495 570 35,000 435 Climbing Oakland Center
Fri 02:27:25 PM 36.3556 -120.8758 134° Southeast 499 574 35,000  Level Oakland Center
Fri 02:28:26 PM 36.2400 -120.7253 134° Southeast 502 578 35,000  Level Oakland Center
Fri 02:29:28 PM 36.1414 -120.6022 135° Southeast 503 579 35,000  Level Oakland Center
Fri 02:30:30 PM 36.0431 -120.4772 134° Southeast 506 582 35,000  Level Oakland Center
Fri 02:31:31 PM 35.9458 -120.3533 134° Southeast 502 578 35,000  Level Oakland Center
Fri 02:32:33 PM 35.8481 -120.2300 134° Southeast 500 575 35,000  Level Oakland Center
Fri 02:33:35 PM 35.7494 -120.1081 135° Southeast 499 574 35,000  Level Oakland Center
Fri 02:34:37 PM 35.6506 -119.9858 135° Southeast 499 574 35,000  Level Oakland Center
Fri 02:35:39 PM 35.5403 -119.8861 144° Southeast 489 563 35,000  Level Oakland Center
Fri 02:36:40 PM 35.4281 -119.7900 145° Southeast 487 560 35,000  Level Oakland Center
Fri 02:37:42 PM 35.2942 -119.6761 145° Southeast 486 559 35,000  Level Oakland Center
Fri 02:38:44 PM 35.1833 -119.5794 145° Southeast 486 559 35,000 -390 Level Oakland Center
Fri 02:39:45 PM 35.0711 -119.4847 145° Southeast 488 562 34,200 -1,902 Descending Oakland Center
Fri 02:40:47 PM 34.9597 -119.3903 145° Southeast 487 560 31,100 -3,097 Descending Oakland Center
Fri 02:41:49 PM 34.8481 -119.2950 145° Southeast 489 563 27,800 -3,242 Descending Oakland Center
Fri 02:42:51 PM 34.7367 -119.2006 145° Southeast 488 562 24,400 -3,160 Descending Oakland Center
Fri 02:44:00 PM 34.5992 -119.0858 146° Southeast 474 545 20,900 -2,631 Descending Los Center
Fri 02:45:01 PM 34.5189 -119.0183 145° Southeast 443 510 18,700 -2,274 Descending Los Center
Fri 02:46:04 PM 34.4197 -118.9364 146° Southeast 429 494 16,200 -2,640 Descending Los Center
Fri 02:47:06 PM 34.3011 -118.8625 153° Southeast 398 458 13,200 -1,935 Descending Los Center
Fri 02:48:08 PM 34.2008 -118.8261 163° South 374 430 12,200 -1,306 Descending Los Center
Fri 02:49:10 PM 34.0939 -118.7850 162° South 338 389 10,500 -1,056 Descending Los Center
Fri 02:50:13 PM 34.0356 -118.7156 135° Southeast 300 345 10,000 -432 Descending Los Center
Fri 02:51:15 PM 34.0247 -118.6133 97° East 307 353 9,600 -823 Descending Los Center
Fri 02:52:17 PM 34.0136 -118.5072 97° East 297 342 8,300 -1,113 Descending Los Center
Fri 02:53:19 PM 34.0125 -118.4242 91° East 287 330 7,300 -1,500 Descending Los Center
Fri 02:54:21 PM 34.0211 -118.3308 84° East 281 323 5,200 -1,403 Descending Los Center
Fri 02:55:23 PM 34.0275 -118.2611 84° East 272 313 4,400 -1,403 Descending Los Center
Fri 02:56:25 PM 34.0358 -118.1617 84° East 219 252 2,300 -1,008 Descending Los Center
Fri 02:57:28 PM 33.9875 -118.1394 159° South 217 250 2,300 -48 Level Los Center
Fri 02:58:30 PM 33.9731 -118.2042 255° West 210 242 2,200 -97 Descending Los Center

Login

Don't have an account? Register now (free) for customized features, flight alerts, and more!